LIPL

Ghedi Air Base

Airport
ICAO code
LIPL
Summary
ICAO Region
EUR
ICAO Territory
Location

Ghedi, Lombardy

Serving
Brescia
Elevation
333 ft
Coordinates
45° 25' 55" N , 10° 16' 4" E
KCC
Metar
LIPL 160655Z 27006KT CAVOK 16/15 Q0999

Ghedi Air Base is a base of the Italian Air Force in Ghedi, about 10 nm from Brescia, northern Italy.

Climatology

Humid subtropical climate (Köppen climate classification Cfa)

Runways

Designator Length Width Surface Rops
13/31 2991 45 ASP No/No

Airport map

Aerial View

SKYbrary Partners:

Safety knowledge contributed by: